createdAt,value
2023-04-03T00:02:00.014Z,1.40
2023-04-03T00:04:03.662Z,1.35
2023-04-03T00:06:10.044Z,1.08
2023-04-03T00:08:15.360Z,1.65
2023-04-03T00:10:19.590Z,1.08
2023-04-03T00:12:23.355Z,1.13
2023-04-03T00:14:27.270Z,1.77
2023-04-03T00:16:31.239Z,1.23
2023-04-03T00:18:34.831Z,1.40
2023-04-03T00:20:39.080Z,1.40
2023-04-03T00:22:43.176Z,1.77
2023-04-03T00:24:48.524Z,2.10
2023-04-03T00:26:52.168Z,2.85
2023-04-03T00:28:57.296Z,1.55
2023-04-03T00:31:01.512Z,1.38
2023-04-03T00:33:05.736Z,1.40
2023-04-03T00:35:10.439Z,1.45
2023-04-03T00:37:14.151Z,1.40
2023-04-03T00:39:17.891Z,1.30
2023-04-03T00:41:23.740Z,1.70
2023-04-03T00:43:28.675Z,1.58
2023-04-03T00:45:38.615Z,1.63
2023-04-03T00:47:44.656Z,1.38
2023-04-03T00:49:49.386Z,1.55
2023-04-03T00:51:53.113Z,1.13
2023-04-03T00:54:01.112Z,1.55
2023-04-03T00:56:10.240Z,1.67
2023-04-03T00:58:17.989Z,2.05
2023-04-03T01:00:23.705Z,0.82
2023-04-03T01:02:27.624Z,1.30
2023-04-03T01:04:33.414Z,1.45
2023-04-03T01:06:40.387Z,1.33
2023-04-03T01:08:48.249Z,1.45
2023-04-03T01:10:52.267Z,1.42
2023-04-03T01:12:57.790Z,1.52
2023-04-03T01:15:05.168Z,2.17
2023-04-03T01:17:30.202Z,1.90
2023-04-03T01:19:35.627Z,1.92
2023-04-03T01:22:02.508Z,1.70
2023-04-03T01:24:20.828Z,1.88
2023-04-03T01:26:24.388Z,1.40
2023-04-03T01:28:30.952Z,1.55
2023-04-03T01:30:42.190Z,1.50
2023-04-03T01:34:51.598Z,1.70
2023-04-03T01:36:55.825Z,1.73
2023-04-03T01:39:01.499Z,1.50
2023-04-03T01:41:07.113Z,1.77
2023-04-03T01:43:11.155Z,1.25
2023-04-03T01:45:15.158Z,1.60
2023-04-03T01:47:18.882Z,1.58
2023-04-03T01:49:24.267Z,1.23
2023-04-03T01:51:28.431Z,1.30
2023-04-03T01:53:32.587Z,1.50
2023-04-03T01:55:36.336Z,2.25
2023-04-03T01:57:40.028Z,1.60
2023-04-03T01:59:43.849Z,1.55
2023-04-03T02:01:47.935Z,1.65
2023-04-03T02:03:51.690Z,1.73
2023-04-03T02:05:57.298Z,1.58
2023-04-03T02:08:01.338Z,1.70
2023-04-03T02:10:06.740Z,1.30
2023-04-03T02:12:10.574Z,1.65
2023-04-03T02:14:14.455Z,1.80
2023-04-03T02:16:18.490Z,1.55
2023-04-03T02:18:22.233Z,1.67
2023-04-03T02:20:26.430Z,1.88
2023-04-03T02:22:31.564Z,1.85
2023-04-03T02:24:35.304Z,2.20
2023-04-03T02:26:38.922Z,2.17
2023-04-03T02:28:42.624Z,1.80
2023-04-03T02:30:46.238Z,1.90
2023-04-03T02:32:50.238Z,2.42
2023-04-03T02:34:54.095Z,1.60
2023-04-03T02:36:58.130Z,2.65
2023-04-03T02:39:04.085Z,2.13
2023-04-03T02:41:10.579Z,2.47
2023-04-03T02:43:14.498Z,2.13
2023-04-03T02:45:18.510Z,2.00
2023-04-03T02:47:22.216Z,2.33
2023-04-03T02:49:26.236Z,2.45
2023-04-03T02:51:30.080Z,2.40
2023-04-03T02:53:34.491Z,2.30
2023-04-03T02:55:47.104Z,1.95
2023-04-03T02:57:50.686Z,1.95
2023-04-03T02:59:54.584Z,2.50
2023-04-03T03:01:58.585Z,2.50
2023-04-03T03:04:03.005Z,2.60
2023-04-03T03:06:08.369Z,2.78
2023-04-03T03:08:12.139Z,2.08
2023-04-03T03:10:16.285Z,2.70
2023-04-03T03:12:23.079Z,2.70
2023-04-03T03:14:27.196Z,3.40
2023-04-03T03:16:31.145Z,2.95
2023-04-03T03:18:35.204Z,2.63
2023-04-03T03:20:39.196Z,2.33
2023-04-03T03:22:43.022Z,2.58
2023-04-03T03:24:46.616Z,2.72
2023-04-03T03:26:50.593Z,2.15
2023-04-03T03:28:55.880Z,2.70
2023-04-03T03:30:59.903Z,2.75
2023-04-03T03:33:04.033Z,2.53
2023-04-03T03:35:08.261Z,2.47
2023-04-03T03:37:12.035Z,3.20
2023-04-03T03:39:16.084Z,3.30
2023-04-03T03:41:19.605Z,2.55
2023-04-03T03:43:23.240Z,2.65
2023-04-03T03:47:34.358Z,3.08
2023-04-03T03:49:38.233Z,3.33
2023-04-03T03:51:42.918Z,2.60
2023-04-03T03:53:46.913Z,3.33
2023-04-03T03:55:53.695Z,3.90
2023-04-03T03:58:01.344Z,3.65
2023-04-03T04:00:08.338Z,3.88
2023-04-03T04:02:20.822Z,3.60
2023-04-03T04:04:24.714Z,3.97
2023-04-03T04:06:28.720Z,3.67
2023-04-03T04:08:36.294Z,4.10
2023-04-03T04:10:42.004Z,4.35
2023-04-03T04:12:47.235Z,4.00
2023-04-03T04:14:51.177Z,3.53
2023-04-03T04:16:54.990Z,4.50
2023-04-03T04:19:06.726Z,3.97
2023-04-03T04:21:11.665Z,3.90
2023-04-03T04:23:16.581Z,3.45
2023-04-03T04:25:20.771Z,3.70
2023-04-03T04:27:24.628Z,3.78
2023-04-03T04:29:28.725Z,3.55
2023-04-03T04:31:32.646Z,4.78
2023-04-03T04:33:36.965Z,4.15
2023-04-03T04:35:44.884Z,3.90
2023-04-03T04:37:49.337Z,3.67
2023-04-03T04:39:53.838Z,4.30
2023-04-03T04:41:58.089Z,4.28
2023-04-03T04:44:04.334Z,3.78
2023-04-03T04:46:12.892Z,3.60
2023-04-03T04:48:21.956Z,3.10
2023-04-03T04:50:25.676Z,4.38
2023-04-03T04:52:32.095Z,3.75
2023-04-03T04:54:35.691Z,3.33
2023-04-03T04:56:39.562Z,2.97
2023-04-03T04:58:43.010Z,3.47
2023-04-03T05:00:46.480Z,3.40
2023-04-03T05:02:49.940Z,3.50
2023-04-03T05:04:55.781Z,4.03
2023-04-03T05:07:04.009Z,3.78
2023-04-03T05:09:12.185Z,3.35
2023-04-03T05:11:16.237Z,3.80
2023-04-03T05:13:21.483Z,3.80
2023-04-03T05:15:25.134Z,3.85
2023-04-03T05:17:28.677Z,3.67
2023-04-03T05:19:33.778Z,3.20
2023-04-03T05:21:38.913Z,3.10
2023-04-03T05:23:47.537Z,3.40
2023-04-03T05:25:52.730Z,2.95
2023-04-03T05:27:57.313Z,3.42
2023-04-03T05:30:01.392Z,3.50
2023-04-03T05:32:06.561Z,4.10
2023-04-03T05:34:10.130Z,3.20
2023-04-03T05:36:15.506Z,4.35
2023-04-03T05:38:22.628Z,3.92
2023-04-03T05:40:26.786Z,3.05
2023-04-03T05:42:34.644Z,3.67
2023-04-03T05:44:37.994Z,3.78
2023-04-03T05:46:41.492Z,4.30
2023-04-03T05:48:47.086Z,4.25
2023-04-03T05:50:56.909Z,4.15
2023-04-03T05:53:04.515Z,4.75
2023-04-03T05:55:10.763Z,4.30
2023-04-03T05:57:15.467Z,5.07
2023-04-03T05:59:21.215Z,4.35
2023-04-03T06:01:27.529Z,4.72
2023-04-03T06:03:36.506Z,5.03
2023-04-03T06:05:42.962Z,5.53
2023-04-03T06:07:51.157Z,4.60
2023-04-03T06:09:55.505Z,5.35
2023-04-03T06:12:01.302Z,4.90
2023-04-03T06:14:06.861Z,5.70
2023-04-03T06:16:16.696Z,4.97
2023-04-03T06:18:20.742Z,4.90
2023-04-03T06:20:25.052Z,6.40
2023-04-03T06:22:31.204Z,5.78
2023-04-03T06:24:37.140Z,5.00
2023-04-03T06:26:41.387Z,5.03
2023-04-03T06:28:45.313Z,5.93
2023-04-03T06:30:49.366Z,5.80
2023-04-03T06:32:55.024Z,6.10
2023-04-03T06:34:59.795Z,5.93
2023-04-03T06:37:03.804Z,5.72
2023-04-03T06:39:08.658Z,6.38
2023-04-03T06:41:12.664Z,5.70
2023-04-03T06:43:16.516Z,5.88
2023-04-03T06:45:21.554Z,5.65
2023-04-03T06:47:25.411Z,4.97
2023-04-03T06:49:31.202Z,5.78
2023-04-03T06:51:34.974Z,5.35
2023-04-03T06:53:39.201Z,5.68
2023-04-03T06:55:43.845Z,5.63
2023-04-03T06:57:47.635Z,4.68
2023-04-03T06:59:51.651Z,4.47
2023-04-03T07:01:55.430Z,5.63
2023-04-03T07:04:00.065Z,5.65
2023-04-03T07:06:05.749Z,4.82
2023-04-03T07:08:09.432Z,4.88
2023-04-03T07:10:13.668Z,4.93
2023-04-03T07:12:18.142Z,4.60
2023-04-03T07:14:22.732Z,4.25
2023-04-03T07:16:26.311Z,4.05
2023-04-03T07:18:30.324Z,4.60
2023-04-03T07:20:33.976Z,4.50
2023-04-03T07:22:39.387Z,4.95
2023-04-03T07:24:42.948Z,4.38
2023-04-03T07:26:47.327Z,6.10
2023-04-03T07:28:51.611Z,5.75
2023-04-03T07:30:57.453Z,5.13
2023-04-03T07:33:01.978Z,5.22
2023-04-03T07:35:06.296Z,5.00
2023-04-03T07:37:10.361Z,6.20
2023-04-03T07:39:15.443Z,5.68
2023-04-03T07:43:25.940Z,5.80
2023-04-03T07:45:29.534Z,3.90
2023-04-03T07:47:33.550Z,4.82
2023-04-03T07:49:39.342Z,4.53
2023-04-03T07:51:42.963Z,4.53
2023-04-03T07:53:47.336Z,5.40
2023-04-03T07:55:56.712Z,5.07
2023-04-03T07:58:00.234Z,4.35
2023-04-03T08:00:04.208Z,4.15
2023-04-03T08:02:15.921Z,4.55
2023-04-03T08:04:19.594Z,4.45
2023-04-03T08:06:33.081Z,5.05
2023-04-03T08:08:46.958Z,4.10
2023-04-03T08:10:53.018Z,4.97
2023-04-03T08:12:56.889Z,5.00
2023-04-03T08:15:02.410Z,4.30
2023-04-03T08:17:06.702Z,4.07
2023-04-03T08:19:18.807Z,4.05
2023-04-03T08:21:28.731Z,3.95
2023-04-03T08:23:32.246Z,4.85
2023-04-03T08:25:36.128Z,4.78
2023-04-03T08:27:41.495Z,4.90
2023-04-03T08:29:46.032Z,5.75
2023-04-03T08:31:50.914Z,5.55
2023-04-03T08:35:58.212Z,5.07
2023-04-03T08:38:02.180Z,5.32
2023-04-03T08:40:06.184Z,4.70
2023-04-03T08:42:18.706Z,4.80
2023-04-03T08:44:28.686Z,5.13
2023-04-03T08:46:43.329Z,4.80
2023-04-03T08:48:47.378Z,3.95
2023-04-03T08:50:55.909Z,4.75
2023-04-03T08:53:01.468Z,5.13
2023-04-03T08:55:07.962Z,5.07
2023-04-03T08:57:14.864Z,5.00
2023-04-03T08:59:26.871Z,4.55
2023-04-03T09:01:37.553Z,5.38
2023-04-03T09:03:43.465Z,4.50
2023-04-03T09:05:53.497Z,4.28
2023-04-03T09:08:02.913Z,5.45
2023-04-03T09:10:07.987Z,4.82
2023-04-03T09:12:22.118Z,4.32
2023-04-03T09:14:35.427Z,4.55
2023-04-03T09:16:51.822Z,4.22
2023-04-03T09:19:05.274Z,4.30
2023-04-03T09:21:18.228Z,4.07
2023-04-03T09:23:29.689Z,4.20
2023-04-03T09:25:37.281Z,4.55
2023-04-03T09:27:41.779Z,4.07
2023-04-03T09:29:48.094Z,4.70
2023-04-03T09:32:03.176Z,8.05
2023-04-03T09:34:12.552Z,4.03
2023-04-03T09:36:17.296Z,4.90
2023-04-03T09:38:25.528Z,4.45
2023-04-03T09:40:40.335Z,4.30
2023-04-03T09:42:48.963Z,4.10
2023-04-03T09:44:57.830Z,5.15
2023-04-03T09:47:21.144Z,3.97
2023-04-03T09:49:25.455Z,4.63
2023-04-03T09:51:33.579Z,4.07
2023-04-03T09:53:40.398Z,4.57
2023-04-03T09:55:46.358Z,4.05
2023-04-03T09:57:53.789Z,6.47
2023-04-03T10:00:02.452Z,5.85
2023-04-03T10:02:31.003Z,4.05
2023-04-03T10:04:41.716Z,5.00
2023-04-03T10:06:49.140Z,4.30
2023-04-03T10:09:08.130Z,4.82
2023-04-03T10:11:15.871Z,4.38
2023-04-03T10:13:22.577Z,5.53
2023-04-03T10:15:32.372Z,4.43
2023-04-03T10:17:52.513Z,4.93
2023-04-03T10:20:04.046Z,5.05
2023-04-03T10:22:21.350Z,4.10
2023-04-03T10:24:31.140Z,4.28
2023-04-03T10:26:43.708Z,4.90
2023-04-03T10:28:56.748Z,4.93
2023-04-03T10:31:10.358Z,4.53
2023-04-03T10:33:38.161Z,10.98
2023-04-03T10:35:52.431Z,4.85
2023-04-03T10:38:07.389Z,4.68
2023-04-03T10:40:25.860Z,4.50
2023-04-03T10:42:37.615Z,4.35
2023-04-03T10:44:54.642Z,5.15
2023-04-03T10:47:08.200Z,4.65
2023-04-03T10:49:31.722Z,4.10
2023-04-03T10:51:44.932Z,4.47
2023-04-03T10:53:58.564Z,5.63
2023-04-03T10:56:09.264Z,4.95
2023-04-03T10:58:33.178Z,4.32
2023-04-03T11:00:42.265Z,5.35
2023-04-03T11:02:54.019Z,4.50
2023-04-03T11:05:04.593Z,4.22
2023-04-03T11:07:15.984Z,4.70
2023-04-03T11:09:27.784Z,4.00
2023-04-03T11:11:36.489Z,3.42
2023-04-03T11:13:47.250Z,4.50
2023-04-03T11:15:51.918Z,3.97
2023-04-03T11:18:01.605Z,4.00
2023-04-03T11:20:17.805Z,4.70
2023-04-03T11:22:27.797Z,4.68
2023-04-03T11:24:35.858Z,4.95
2023-04-03T11:26:43.390Z,4.97
2023-04-03T11:28:47.568Z,3.90
2023-04-03T11:31:01.708Z,4.15
2023-04-03T11:33:24.267Z,4.38
2023-04-03T11:35:30.673Z,4.53
2023-04-03T11:37:38.639Z,5.13
2023-04-03T11:39:50.343Z,4.32
2023-04-03T11:42:06.824Z,4.20
2023-04-03T11:44:35.577Z,4.40
2023-04-03T11:46:57.916Z,4.28
2023-04-03T11:49:02.262Z,4.20
2023-04-03T11:51:42.482Z,4.30
2023-04-03T11:53:48.572Z,3.95
2023-04-03T11:56:33.658Z,4.03
2023-04-03T11:58:39.721Z,4.35
2023-04-03T12:00:56.348Z,4.45
2023-04-03T12:03:00.805Z,4.35
2023-04-03T12:05:29.351Z,4.43
2023-04-03T12:07:34.928Z,4.22
2023-04-03T12:10:02.262Z,4.68
2023-04-03T12:12:26.590Z,4.65
2023-04-03T12:14:31.625Z,4.55
2023-04-03T12:18:58.004Z,4.93
2023-04-03T12:21:02.452Z,4.18
2023-04-03T12:23:28.798Z,4.22
2023-04-03T12:25:51.976Z,4.53
2023-04-03T12:27:56.189Z,4.43
2023-04-03T12:30:07.398Z,4.55
2023-04-03T12:32:25.219Z,3.85
2023-04-03T12:34:47.276Z,4.25
2023-04-03T12:37:03.319Z,4.13
2023-04-03T12:39:27.618Z,4.85
2023-04-03T12:41:41.162Z,4.60
2023-04-03T12:44:02.022Z,4.15
2023-04-03T12:46:07.568Z,3.83
2023-04-03T12:48:17.930Z,4.47
2023-04-03T12:50:26.793Z,3.95
2023-04-03T12:52:38.209Z,2.97
2023-04-03T12:54:45.081Z,4.10
2023-04-03T12:56:48.925Z,4.30
2023-04-03T12:58:54.488Z,3.85
2023-04-03T13:01:03.389Z,3.92
2023-04-03T13:03:21.688Z,3.45
2023-04-03T13:05:26.266Z,3.75
2023-04-03T13:07:34.684Z,3.97
2023-04-03T13:09:38.599Z,3.83
2023-04-03T13:11:45.682Z,3.45
2023-04-03T13:14:02.059Z,3.20
2023-04-03T13:16:14.939Z,3.25
2023-04-03T13:18:32.791Z,3.47
2023-04-03T13:20:39.494Z,3.75
2023-04-03T13:22:51.136Z,4.30
2023-04-03T13:24:57.025Z,4.40
2023-04-03T13:27:02.952Z,4.88
2023-04-03T13:29:14.920Z,4.82
2023-04-03T13:31:28.995Z,5.20
2023-04-03T13:33:35.187Z,4.60
2023-04-03T13:35:42.489Z,4.28
2023-04-03T13:37:57.779Z,4.60
2023-04-03T13:40:06.124Z,5.05
2023-04-03T13:42:25.450Z,4.70
2023-04-03T13:44:35.119Z,4.07
2023-04-03T13:46:38.999Z,4.63
2023-04-03T13:48:46.502Z,5.35
2023-04-03T13:51:01.558Z,4.40
2023-04-03T13:53:16.835Z,4.20
2023-04-03T13:55:26.262Z,4.90
2023-04-03T13:57:33.482Z,3.70
2023-04-03T13:59:38.884Z,3.95
2023-04-03T14:01:47.048Z,3.25
2023-04-03T14:03:57.066Z,3.55
2023-04-03T14:06:02.327Z,3.65
2023-04-03T14:08:07.854Z,2.80
2023-04-03T14:10:12.320Z,2.50
2023-04-03T14:12:30.967Z,3.53
2023-04-03T14:14:39.723Z,3.28
2023-04-03T14:16:46.866Z,3.50
2023-04-03T14:18:54.308Z,3.53
2023-04-03T14:20:58.028Z,3.50
2023-04-03T14:23:01.808Z,2.85
2023-04-03T14:25:08.605Z,3.88
2023-04-03T14:27:19.234Z,3.20
2023-04-03T14:29:24.285Z,3.40
2023-04-03T14:33:35.971Z,4.13
2023-04-03T14:35:39.713Z,3.33
2023-04-03T14:37:43.870Z,2.58
2023-04-03T14:39:49.067Z,2.85
2023-04-03T14:41:52.716Z,3.08
2023-04-03T14:43:56.922Z,2.70
2023-04-03T14:46:00.958Z,2.78
2023-04-03T14:48:06.734Z,3.00
2023-04-03T14:50:14.528Z,3.47
2023-04-03T14:52:22.876Z,2.80
2023-04-03T14:54:29.086Z,3.45
2023-04-03T14:56:32.936Z,2.67
2023-04-03T14:58:37.622Z,2.30
2023-04-03T15:00:41.559Z,3.03
2023-04-03T15:02:47.180Z,2.97
2023-04-03T15:04:53.495Z,3.30
2023-04-03T15:06:57.530Z,8.07
2023-04-03T15:09:01.452Z,2.55
2023-04-03T15:11:05.338Z,3.33
2023-04-03T15:13:08.845Z,3.45
2023-04-03T15:15:13.560Z,3.05
2023-04-03T15:17:19.981Z,3.33
2023-04-03T15:19:24.039Z,3.40
2023-04-03T15:21:29.681Z,3.03
2023-04-03T15:23:33.430Z,3.10
2023-04-03T15:25:37.406Z,2.95
2023-04-03T15:27:42.480Z,3.08
2023-04-03T15:29:47.069Z,2.35
2023-04-03T15:31:54.865Z,2.80
2023-04-03T15:33:58.946Z,2.45
2023-04-03T15:36:07.126Z,2.63
2023-04-03T15:38:14.005Z,2.58
2023-04-03T15:40:18.274Z,3.10
2023-04-03T15:42:23.112Z,2.28
2023-04-03T15:44:26.721Z,2.42
2023-04-03T15:46:31.006Z,2.97
2023-04-03T15:48:34.965Z,3.10
2023-04-03T15:50:39.361Z,2.88
2023-04-03T15:52:43.316Z,2.45
2023-04-03T15:54:48.762Z,2.58
2023-04-03T15:56:52.674Z,3.03
2023-04-03T15:58:56.520Z,2.92
2023-04-03T16:01:00.385Z,2.83
2023-04-03T16:03:08.480Z,1.98
2023-04-03T16:05:14.120Z,2.33
2023-04-03T16:07:17.868Z,2.67
2023-04-03T16:09:21.505Z,2.10
2023-04-03T16:11:27.361Z,2.95
2023-04-03T16:13:31.044Z,2.83
2023-04-03T16:15:37.285Z,2.30
2023-04-03T16:17:45.245Z,2.80
2023-04-03T16:19:49.588Z,2.90
2023-04-03T16:21:53.837Z,2.30
2023-04-03T16:24:00.127Z,2.88
2023-04-03T16:26:03.726Z,2.97
2023-04-03T16:28:09.105Z,2.58
2023-04-03T16:30:13.794Z,2.33
2023-04-03T16:32:17.807Z,2.95
2023-04-03T16:34:21.656Z,2.75
2023-04-03T16:36:26.549Z,2.70
2023-04-03T16:40:34.966Z,2.33
2023-04-03T16:42:38.457Z,2.20
2023-04-03T16:44:43.734Z,2.55
2023-04-03T16:46:48.360Z,2.40
2023-04-03T16:48:52.113Z,2.40
2023-04-03T16:50:55.798Z,2.80
2023-04-03T16:52:59.345Z,2.25
2023-04-03T16:55:03.035Z,2.40
2023-04-03T16:57:07.336Z,2.53
2023-04-03T16:59:11.021Z,2.20
2023-04-03T17:01:20.742Z,2.47
2023-04-03T17:03:26.981Z,2.67
2023-04-03T17:05:30.832Z,3.28
2023-04-03T17:07:34.926Z,2.60
2023-04-03T17:09:38.492Z,3.20
2023-04-03T17:11:42.667Z,5.63
2023-04-03T17:13:47.583Z,2.47
2023-04-03T17:15:51.394Z,2.58
2023-04-03T17:17:56.731Z,2.38
2023-04-03T17:20:01.322Z,2.92
2023-04-03T17:22:05.194Z,3.17
2023-04-03T17:24:13.680Z,2.60
2023-04-03T17:26:17.712Z,2.38
2023-04-03T17:28:22.530Z,3.17
2023-04-03T17:30:26.082Z,2.70
2023-04-03T17:32:30.044Z,2.40
2023-04-03T17:34:37.069Z,2.70
2023-04-03T17:36:42.229Z,2.65
2023-04-03T17:38:46.298Z,2.85
2023-04-03T17:40:50.022Z,2.63
2023-04-03T17:42:53.703Z,2.92
2023-04-03T17:44:57.228Z,2.88
2023-04-03T17:47:00.886Z,1.88
2023-04-03T17:49:05.424Z,2.10
2023-04-03T17:51:12.947Z,3.05
2023-04-03T17:53:16.548Z,1.95
2023-04-03T17:55:20.411Z,3.00
2023-04-03T17:57:23.970Z,2.45
2023-04-03T17:59:28.471Z,3.45
2023-04-03T18:01:34.418Z,3.25
2023-04-03T18:03:38.021Z,3.58
2023-04-03T18:05:41.926Z,2.53
2023-04-03T18:07:47.377Z,2.88
2023-04-03T18:09:52.393Z,2.78
2023-04-03T18:14:03.938Z,2.97
2023-04-03T18:16:09.876Z,3.00
2023-04-03T18:18:13.665Z,2.92
2023-04-03T18:20:18.238Z,3.08
2023-04-03T18:22:25.678Z,2.80
2023-04-03T18:24:34.160Z,2.85
2023-04-03T18:26:37.850Z,3.20
2023-04-03T18:28:44.722Z,2.63
2023-04-03T18:30:48.931Z,2.88
2023-04-03T18:32:52.821Z,2.72
2023-04-03T18:34:57.612Z,3.53
2023-04-03T18:37:01.877Z,3.45
2023-04-03T18:39:06.196Z,2.60
2023-04-03T18:41:12.035Z,3.22
2023-04-03T18:43:16.484Z,3.33
2023-04-03T18:45:24.525Z,3.80
2023-04-03T18:47:29.944Z,3.65
2023-04-03T18:49:35.792Z,3.78
2023-04-03T18:51:40.676Z,3.45
2023-04-03T18:53:44.616Z,4.10
2023-04-03T18:55:48.777Z,3.75
2023-04-03T18:57:54.790Z,3.40
2023-04-03T18:59:58.818Z,4.03
2023-04-03T19:02:03.455Z,3.47
2023-04-03T19:04:09.537Z,4.07
2023-04-03T19:06:23.303Z,3.83
2023-04-03T19:08:39.498Z,3.92
2023-04-03T19:10:50.720Z,3.88
2023-04-03T19:15:01.794Z,3.70
2023-04-03T19:17:09.077Z,4.25
2023-04-03T19:19:18.264Z,4.72
2023-04-03T19:21:23.478Z,5.85
2023-04-03T19:23:28.297Z,4.63
2023-04-03T19:25:33.205Z,5.13
2023-04-03T19:27:38.241Z,5.68
2023-04-03T19:29:44.189Z,4.88
2023-04-03T19:31:49.111Z,5.47
2023-04-03T19:33:54.863Z,4.82
2023-04-03T19:35:59.377Z,5.00
2023-04-03T19:38:03.677Z,5.25
2023-04-03T19:40:15.220Z,5.80
2023-04-03T19:42:20.531Z,5.45
2023-04-03T19:44:25.681Z,5.43
2023-04-03T19:46:32.376Z,5.28
2023-04-03T19:48:39.116Z,4.95
2023-04-03T19:50:43.858Z,5.38
2023-04-03T19:52:47.941Z,4.18
2023-04-03T19:54:52.978Z,3.67
2023-04-03T19:56:57.096Z,4.00
2023-04-03T19:59:01.125Z,3.78
2023-04-03T20:01:05.042Z,4.13
2023-04-03T20:03:11.535Z,4.40
2023-04-03T20:05:15.909Z,5.00
2023-04-03T20:07:24.236Z,4.90
2023-04-03T20:09:29.013Z,4.50
2023-04-03T20:11:36.988Z,4.32
2023-04-03T20:13:42.769Z,7.20
2023-04-03T20:15:47.751Z,4.25
2023-04-03T20:17:51.762Z,5.05
2023-04-03T20:20:01.816Z,5.05
2023-04-03T20:22:06.341Z,7.03
2023-04-03T20:24:13.919Z,4.15
2023-04-03T20:26:24.039Z,5.22
2023-04-03T20:28:29.079Z,4.43
2023-04-03T20:32:40.181Z,5.97
2023-04-03T20:34:57.506Z,5.05
2023-04-03T20:37:09.419Z,4.75
2023-04-03T20:39:14.200Z,6.72
2023-04-03T20:41:19.355Z,4.45
2023-04-03T20:45:29.201Z,4.55
2023-04-03T20:49:38.262Z,3.78
2023-04-03T20:51:44.179Z,3.42
2023-04-03T20:53:50.856Z,3.92
2023-04-03T20:56:00.449Z,4.43
2023-04-03T20:58:05.616Z,4.25
2023-04-03T21:00:11.395Z,4.25
2023-04-03T21:02:16.922Z,3.38
2023-04-03T21:04:27.039Z,3.45
2023-04-03T21:07:07.741Z,4.25
2023-04-03T21:09:50.319Z,4.03
2023-04-03T21:12:31.550Z,3.50
2023-04-03T21:15:13.726Z,4.40
2023-04-03T21:17:17.450Z,3.78
2023-04-03T21:19:23.819Z,4.18
2023-04-03T21:21:28.378Z,5.00
2023-04-03T21:23:34.470Z,4.32
2023-04-03T21:25:38.781Z,5.03
2023-04-03T21:27:43.054Z,4.22
2023-04-03T21:29:47.344Z,3.95
2023-04-03T21:31:54.658Z,3.72
2023-04-03T21:33:58.749Z,4.32
2023-04-03T21:36:04.282Z,3.45
2023-04-03T21:38:09.614Z,4.05
2023-04-03T21:40:14.302Z,3.60
2023-04-03T21:42:19.170Z,4.20
2023-04-03T21:44:24.671Z,4.25
2023-04-03T21:46:28.939Z,5.35
2023-04-03T21:48:33.342Z,4.15
2023-04-03T21:50:39.003Z,4.10
2023-04-03T21:52:45.093Z,3.88
2023-04-03T21:54:49.573Z,3.95
2023-04-03T21:56:54.472Z,4.38
2023-04-03T21:58:58.653Z,4.10
2023-04-03T22:01:11.980Z,4.53
2023-04-03T22:03:24.093Z,3.88
2023-04-03T22:05:28.692Z,4.85
2023-04-03T22:07:32.895Z,4.45
2023-04-03T22:09:39.011Z,3.60
2023-04-03T22:11:46.258Z,4.00
2023-04-03T22:13:53.731Z,3.88
2023-04-03T22:15:59.473Z,4.40
2023-04-03T22:18:04.202Z,3.10
2023-04-03T22:20:10.340Z,4.43
2023-04-03T22:22:14.479Z,4.68
2023-04-03T22:24:20.617Z,4.30
2023-04-03T22:26:27.322Z,5.20
2023-04-03T22:28:32.596Z,4.03
2023-04-03T22:30:37.138Z,4.75
2023-04-03T22:32:41.667Z,5.15
2023-04-03T22:34:46.880Z,5.25
2023-04-03T22:36:51.416Z,4.75
2023-04-03T22:38:55.667Z,4.38
2023-04-03T22:41:00.875Z,5.50
2023-04-03T22:43:06.578Z,5.15
2023-04-03T22:45:11.864Z,4.25
2023-04-03T22:47:16.360Z,4.18
2023-04-03T22:49:21.057Z,2.55
2023-04-03T22:51:25.411Z,3.40
2023-04-03T22:53:30.031Z,4.43
2023-04-03T22:55:34.136Z,3.88
2023-04-03T22:57:38.547Z,3.65
2023-04-03T22:59:44.165Z,3.50
2023-04-03T23:01:49.128Z,3.60
2023-04-03T23:03:53.765Z,2.60
2023-04-03T23:05:58.244Z,3.38
2023-04-03T23:08:02.436Z,3.88
2023-04-03T23:10:08.627Z,3.83
2023-04-03T23:12:12.925Z,3.95
2023-04-03T23:14:17.244Z,3.90
2023-04-03T23:16:23.467Z,3.75
2023-04-03T23:18:29.838Z,3.58
2023-04-03T23:20:34.614Z,3.15
2023-04-03T23:22:38.765Z,3.45
2023-04-03T23:24:43.966Z,3.08
2023-04-03T23:26:48.243Z,2.85
2023-04-03T23:28:52.165Z,3.20
2023-04-03T23:31:02.166Z,2.72
2023-04-03T23:33:09.177Z,3.13
2023-04-03T23:35:13.618Z,3.20
2023-04-03T23:37:17.907Z,2.78
2023-04-03T23:39:23.426Z,2.88
2023-04-03T23:41:27.182Z,2.53
2023-04-03T23:43:32.360Z,3.30
2023-04-03T23:47:41.427Z,3.45
2023-04-03T23:49:47.260Z,3.00
2023-04-03T23:51:52.465Z,2.58
2023-04-03T23:53:57.059Z,3.03
2023-04-03T23:56:01.206Z,2.63
2023-04-03T23:58:05.109Z,2.60
